createdAt,value
2022-09-10T00:02:07.622Z,42.23
2022-09-10T00:07:32.187Z,41.90
2022-09-10T00:12:55.979Z,42.35
2022-09-10T00:18:20.703Z,42.39
2022-09-10T00:23:45.868Z,42.31
2022-09-10T00:29:10.575Z,42.32
2022-09-10T00:34:32.996Z,42.11
2022-09-10T00:39:55.913Z,42.58
2022-09-10T00:45:23.922Z,42.26
2022-09-10T00:50:48.953Z,42.06
2022-09-10T00:56:10.722Z,42.14
2022-09-10T01:01:34.680Z,42.40
2022-09-10T01:06:56.671Z,42.38
2022-09-10T01:12:42.848Z,42.19
2022-09-10T01:18:48.142Z,42.29
2022-09-10T01:24:47.159Z,42.23
2022-09-10T01:30:31.540Z,42.33
2022-09-10T01:36:05.736Z,42.17
2022-09-10T01:41:28.949Z,42.31
2022-09-10T01:47:02.554Z,42.23
2022-09-10T01:52:56.383Z,42.27
2022-09-10T01:58:36.498Z,42.08
2022-09-10T02:04:02.947Z,42.49
2022-09-10T02:09:24.858Z,42.75
2022-09-10T02:14:55.314Z,42.59
2022-09-10T02:20:17.104Z,42.40
2022-09-10T02:25:38.773Z,42.57
2022-09-10T02:31:01.762Z,42.37
2022-09-10T02:36:26.221Z,42.46
2022-09-10T02:41:48.273Z,42.47
2022-09-10T02:47:09.893Z,42.53
2022-09-10T02:52:31.536Z,42.25
2022-09-10T02:57:54.042Z,42.46
2022-09-10T03:03:17.378Z,42.41
2022-09-10T03:08:39.205Z,42.39
2022-09-10T03:14:01.056Z,42.45
2022-09-10T03:19:22.799Z,42.53
2022-09-10T03:24:44.440Z,42.48
2022-09-10T03:30:06.798Z,42.46
2022-09-10T03:35:28.478Z,42.54
2022-09-10T03:40:51.328Z,42.28
2022-09-10T03:46:13.116Z,42.46
2022-09-10T03:51:35.463Z,42.42
2022-09-10T03:56:57.142Z,42.55
2022-09-10T04:02:18.932Z,42.50
2022-09-10T04:07:40.632Z,42.35
2022-09-10T04:13:02.369Z,42.24
2022-09-10T04:18:26.672Z,42.36
2022-09-10T04:23:48.349Z,42.78
2022-09-10T04:29:10.003Z,42.26
2022-09-10T04:34:31.648Z,42.77
2022-09-10T04:39:54.277Z,42.66
2022-09-10T04:45:16.326Z,42.49
2022-09-10T04:50:54.001Z,42.42
2022-09-10T04:56:22.233Z,42.77
2022-09-10T05:01:43.870Z,42.47
2022-09-10T05:07:05.722Z,42.63
2022-09-10T05:12:27.334Z,42.44
2022-09-10T05:17:49.451Z,42.81
2022-09-10T05:23:11.228Z,43.07
2022-09-10T05:28:33.143Z,42.82
2022-09-10T05:33:59.448Z,43.17
2022-09-10T05:39:21.147Z,42.82
2022-09-10T05:44:42.799Z,42.84
2022-09-10T05:50:05.461Z,42.81
2022-09-10T05:55:27.490Z,42.91
2022-09-10T06:00:52.202Z,42.88
2022-09-10T06:06:13.894Z,42.94
2022-09-10T06:11:35.604Z,42.92
2022-09-10T06:16:57.235Z,42.95
2022-09-10T06:22:18.937Z,43.37
2022-09-10T06:27:41.550Z,43.28
2022-09-10T06:33:03.347Z,43.54
2022-09-10T06:38:28.002Z,43.75
2022-09-10T06:43:49.748Z,43.68
2022-09-10T06:49:11.995Z,43.79
2022-09-10T06:54:33.657Z,43.83
2022-09-10T06:59:55.450Z,43.83
2022-09-10T07:05:17.109Z,43.94
2022-09-10T07:10:39.514Z,44.05
2022-09-10T07:16:02.206Z,43.97
2022-09-10T07:21:25.535Z,44.11
2022-09-10T07:26:47.286Z,44.13
2022-09-10T07:32:13.229Z,43.92
2022-09-10T07:37:35.831Z,43.78
2022-09-10T07:42:57.647Z,43.79
2022-09-10T07:48:19.424Z,43.50
2022-09-10T07:53:50.074Z,43.69
2022-09-10T07:59:13.494Z,43.80
2022-09-10T08:04:37.711Z,44.12
2022-09-10T08:09:59.351Z,43.73
2022-09-10T08:15:21.143Z,43.99
2022-09-10T08:20:42.861Z,43.83
2022-09-10T08:26:06.729Z,43.89
2022-09-10T08:31:28.666Z,44.11
2022-09-10T08:36:50.435Z,44.50
2022-09-10T08:42:27.723Z,43.96
2022-09-10T08:48:02.817Z,44.45
2022-09-10T08:53:26.052Z,43.99
2022-09-10T08:58:50.525Z,44.65
2022-09-10T09:04:28.888Z,44.71
2022-09-10T09:09:52.024Z,44.40
2022-09-10T09:15:19.742Z,44.69
2022-09-10T09:20:48.473Z,44.67
2022-09-10T09:26:13.801Z,44.78
2022-09-10T09:31:40.752Z,45.08
2022-09-10T09:37:16.583Z,45.36
2022-09-10T09:42:47.446Z,45.54
2022-09-10T09:48:13.708Z,45.60
2022-09-10T09:53:35.689Z,46.07
2022-09-10T09:59:11.846Z,46.08
2022-09-10T10:04:41.498Z,46.11
2022-09-10T10:10:08.085Z,46.16
2022-09-10T10:15:42.561Z,45.89
2022-09-10T10:21:10.497Z,46.27
2022-09-10T10:26:36.399Z,46.67
2022-09-10T10:31:59.199Z,46.52
2022-09-10T10:37:46.829Z,46.64
2022-09-10T10:43:39.049Z,46.86
2022-09-10T10:49:27.898Z,46.54
2022-09-10T10:55:10.207Z,46.87
2022-09-10T11:00:44.283Z,46.30
2022-09-10T11:06:20.360Z,47.01
2022-09-10T11:12:08.064Z,46.38
2022-09-10T11:17:47.388Z,46.78
2022-09-10T11:23:27.966Z,46.43
2022-09-10T11:29:23.457Z,46.34
2022-09-10T11:35:10.113Z,46.49
2022-09-10T11:41:07.042Z,46.49
2022-09-10T11:46:38.287Z,46.22
2022-09-10T11:52:02.349Z,46.18
2022-09-10T11:58:19.589Z,46.05
2022-09-10T12:04:17.483Z,46.74
2022-09-10T12:09:51.268Z,46.47
2022-09-10T12:15:21.940Z,46.49
2022-09-10T12:20:57.284Z,46.48
2022-09-10T12:26:22.480Z,46.84
2022-09-10T12:32:27.154Z,46.55
2022-09-10T12:37:49.142Z,46.65
2022-09-10T12:43:43.549Z,46.80
2022-09-10T12:49:14.167Z,46.89
2022-09-10T12:55:02.221Z,47.03
2022-09-10T13:00:26.125Z,46.82
2022-09-10T13:05:51.962Z,46.60
2022-09-10T13:11:24.613Z,46.49
2022-09-10T13:16:46.718Z,46.89
2022-09-10T13:22:31.927Z,46.66
2022-09-10T13:27:53.752Z,46.72
2022-09-10T13:33:21.757Z,46.50
2022-09-10T13:39:26.772Z,45.99
2022-09-10T13:45:22.025Z,45.26
2022-09-10T13:51:08.352Z,45.49
2022-09-10T13:56:32.365Z,45.65
2022-09-10T14:01:55.674Z,45.78
2022-09-10T14:07:21.430Z,45.98
2022-09-10T14:12:43.501Z,46.13
2022-09-10T14:18:05.551Z,46.15
2022-09-10T14:23:29.743Z,45.94
2022-09-10T14:29:03.591Z,45.70
2022-09-10T14:34:32.496Z,45.93
2022-09-10T14:39:56.781Z,46.08
2022-09-10T14:45:49.906Z,46.07
2022-09-10T14:51:25.704Z,46.06
2022-09-10T14:56:48.839Z,46.18
2022-09-10T15:02:16.123Z,45.83
2022-09-10T15:07:38.137Z,45.85
2022-09-10T15:13:00.207Z,45.99
2022-09-10T15:18:22.810Z,46.15
2022-09-10T15:23:44.655Z,46.09
2022-09-10T15:29:06.339Z,46.20
2022-09-10T15:34:28.693Z,46.20
2022-09-10T15:39:51.827Z,46.06
2022-09-10T15:45:13.664Z,45.84
2022-09-10T15:50:37.561Z,46.09
2022-09-10T15:56:10.156Z,45.77
2022-09-10T16:01:32.583Z,46.04
2022-09-10T16:06:54.258Z,45.89
2022-09-10T16:12:17.567Z,45.69
2022-09-10T16:17:39.212Z,45.85
2022-09-10T16:23:00.912Z,45.72
2022-09-10T16:28:22.654Z,45.84
2022-09-10T16:33:45.578Z,45.81
2022-09-10T16:39:12.558Z,46.01
2022-09-10T16:44:34.716Z,45.92
2022-09-10T16:49:56.327Z,46.06
2022-09-10T16:55:17.984Z,45.93
2022-09-10T17:00:42.879Z,46.06
2022-09-10T17:06:05.260Z,46.00
2022-09-10T17:11:31.593Z,45.59
2022-09-10T17:16:53.384Z,45.76
2022-09-10T17:22:15.022Z,46.06
2022-09-10T17:27:36.700Z,45.79
2022-09-10T17:32:59.672Z,45.83
2022-09-10T17:38:21.475Z,45.63
2022-09-10T17:43:44.656Z,46.17
2022-09-10T17:49:06.664Z,46.03
2022-09-10T17:54:28.294Z,46.00
2022-09-10T17:59:50.012Z,45.93
2022-09-10T18:05:12.077Z,45.82
2022-09-10T18:10:34.676Z,45.75
2022-09-10T18:15:56.381Z,45.76
2022-09-10T18:21:20.734Z,45.62
2022-09-10T18:26:44.530Z,45.93
2022-09-10T18:32:07.501Z,45.60
2022-09-10T18:37:30.099Z,45.42
2022-09-10T18:42:52.525Z,45.74
2022-09-10T18:48:14.153Z,45.88
2022-09-10T18:53:36.693Z,45.67
2022-09-10T18:59:05.737Z,45.78
2022-09-10T19:04:29.464Z,45.96
2022-09-10T19:09:51.136Z,45.94
2022-09-10T19:15:12.796Z,45.65
2022-09-10T19:20:36.969Z,45.60
2022-09-10T19:25:59.144Z,45.69
2022-09-10T19:31:20.931Z,45.73
2022-09-10T19:36:43.673Z,45.56
2022-09-10T19:42:06.900Z,45.89
2022-09-10T19:47:28.529Z,45.90
2022-09-10T19:52:50.857Z,45.69
2022-09-10T19:58:12.512Z,45.77
2022-09-10T20:03:36.343Z,45.61
2022-09-10T20:08:58.272Z,45.77
2022-09-10T20:14:20.324Z,45.43
2022-09-10T20:19:41.929Z,45.34
2022-09-10T20:25:03.799Z,45.75
2022-09-10T20:30:25.456Z,45.58
2022-09-10T20:35:47.181Z,45.44
2022-09-10T20:41:09.908Z,45.59
2022-09-10T20:46:32.306Z,45.53
2022-09-10T20:51:54.001Z,45.64
2022-09-10T20:57:16.726Z,45.61
2022-09-10T21:02:39.298Z,45.53
2022-09-10T21:08:00.947Z,45.96
2022-09-10T21:13:25.121Z,46.20
2022-09-10T21:18:54.151Z,46.02
2022-09-10T21:24:22.695Z,46.32
2022-09-10T21:29:44.991Z,45.97
2022-09-10T21:35:07.500Z,45.70
2022-09-10T21:40:29.165Z,45.91
2022-09-10T21:45:51.157Z,46.00
2022-09-10T21:51:15.840Z,45.93
2022-09-10T21:56:37.519Z,45.65
2022-09-10T22:01:59.426Z,45.75
2022-09-10T22:07:21.255Z,45.98
2022-09-10T22:12:42.933Z,45.91
2022-09-10T22:18:04.857Z,45.88
2022-09-10T22:23:34.894Z,46.12
2022-09-10T22:28:59.548Z,45.91
2022-09-10T22:34:21.272Z,46.07
2022-09-10T22:39:42.989Z,45.80
2022-09-10T22:45:05.221Z,45.86
2022-09-10T22:50:27.101Z,45.75
2022-09-10T22:55:49.562Z,45.87
2022-09-10T23:01:16.327Z,45.80
2022-09-10T23:06:39.372Z,45.78
2022-09-10T23:12:01.451Z,45.44
2022-09-10T23:17:23.153Z,45.42
2022-09-10T23:22:44.822Z,45.47
2022-09-10T23:28:07.457Z,45.77
2022-09-10T23:33:29.242Z,45.50
2022-09-10T23:38:51.158Z,45.69
2022-09-10T23:44:12.825Z,45.45
2022-09-10T23:49:34.571Z,45.51
2022-09-10T23:54:56.697Z,45.47
